| time (UTC) | temp F | wind direction | speed knots | gust knots | rain 1hr in | rain 24hr in | rain mn in | humidity % | barometer mb |
| 20260507071535 | 40 | 0 | 0.0 | 0.0 | 0.00 | 0.09 | 0.00 | 92 | 1014.1 |
| 20260507070035 | 41 | 0 | 0.0 | 0.0 | 0.00 | 0.09 | 0.00 | 92 | 1014.0 |
| 20260507064537 | 41 | 0 | 0.0 | 0.0 | 0.00 | 0.17 | 0.00 | 92 | 1014.2 |
| 20260507063042 | 41 | 0 | 0.0 | 0.0 | 0.00 | 0.17 | 0.00 | 91 | 1014.1 |
| 20260507061539 | 41 | 0 | 0.0 | 0.0 | 0.00 | 0.17 | 0.00 | 91 | 1014.2 |
| 20260507060036 | 42 | 0 | 0.0 | 0.0 | 0.00 | 0.17 | 0.00 | 90 | 1014.1 |
| 20260507054538 | 42 | 0 | 0.0 | 0.0 | 0.00 | 0.30 | 0.00 | 90 | 1014.2 |
| 20260507053032 | 43 | 0 | 0.0 | 0.0 | 0.00 | 0.30 | 0.00 | 90 | 1014.1 |
| 20260507051535 | 43 | 0 | 0.0 | 0.0 | 0.00 | 0.30 | 0.00 | 90 | 1014.5 |
| 20260507050042 | 43 | 0 | 0.0 | 0.0 | 0.00 | 0.30 | 0.00 | 90 | 1014.5 |
| 20260507044535 | 43 | 0 | 0.0 | 0.0 | 0.00 | 0.41 | 0.00 | 89 | 1014.4 |
| 20260507043048 | 42 | 0 | 0.0 | 0.9 | 0.00 | 0.41 | 0.00 | 89 | 1014.5 |
| 20260507041533 | 42 | 0 | 0.0 | 0.9 | 0.00 | 0.41 | 0.00 | 88 | 1014.4 |
| 20260507040035 | 43 | 0 | 0.0 | 0.0 | 0.00 | 0.41 | 0.00 | 88 | 1014.4 |
| 20260507034536 | 43 | 0 | 0.0 | 0.0 | 0.00 | 0.42 | 0.41 | 87 | 1014.4 |
| 20260507033039 | 44 | 0 | 0.0 | 0.0 | 0.00 | 0.42 | 0.41 | 86 | 1014.5 |
| 20260507031534 | 44 | 0 | 0.0 | 0.0 | 0.00 | 0.42 | 0.41 | 86 | 1014.7 |
| 20260507030033 | 44 | 0 | 0.0 | 0.0 | 0.00 | 0.42 | 0.41 | 85 | 1014.7 |
| 20260507024535 | 45 | 0 | 0.0 | 0.0 | 0.00 | 0.49 | 0.41 | 85 | 1014.6 |
| 20260507023035 | 45 | 0 | 0.0 | 0.0 | 0.00 | 0.49 | 0.41 | 83 | 1014.7 |
| 20260507021537 | 45 | 0 | 0.0 | 0.0 | 0.00 | 0.49 | 0.41 | 81 | 1014.6 |
| 20260507020046 | 46 | 0 | 0.0 | 0.0 | 0.00 | 0.49 | 0.41 | 79 | 1014.5 |
| 20260507014536 | 47 | 0 | 0.0 | 0.0 | 0.00 | 0.57 | 0.41 | 76 | 1014.3 |
| 20260507013035 | 48 | 0 | 0.0 | 0.9 | 0.00 | 0.57 | 0.41 | 74 | 1013.9 |
| 20260507011544 | 49 | 0 | 0.0 | 0.0 | 0.00 | 0.57 | 0.41 | 73 | 1014.0 |
| 20260507010037 | 49 | 0 | 0.0 | 0.0 | 0.00 | 0.57 | 0.41 | 71 | 1014.0 |
| 20260507004535 | 51 | 0 | 0.0 | 0.0 | 0.00 | 0.60 | 0.41 | 69 | 1013.9 |
| 20260507003039 | 52 | 0 | 0.0 | 1.7 | 0.00 | 0.60 | 0.41 | 64 | 1013.6 |
| 20260507001604 | 53 | 0 | 0.0 | 1.7 | 0.00 | 0.60 | 0.41 | 62 | 1013.5 |
| 20260507000041 | 53 | 294 | 0.9 | 3.5 | 0.00 | 0.60 | 0.41 | 61 | 1013.2 |
| 20260506234535 | 54 | 336 | 0.9 | 3.5 | 0.00 | 0.60 | 0.41 | 59 | 1013.1 |
| 20260506233034 | 54 | 338 | 0.9 | 4.3 | 0.00 | 0.60 | 0.41 | 58 | 1013.1 |
| 20260506231542 | 55 | 0 | 0.0 | 5.2 | 0.00 | 0.60 | 0.41 | 59 | 1013.2 |
| 20260506230050 | 55 | 0 | 0.9 | 3.5 | 0.00 | 0.60 | 0.41 | 59 | 1013.2 |
| 20260506224536 | 55 | 360 | 0.0 | 3.5 | 0.00 | 0.62 | 0.41 | 57 | 1013.3 |
| 20260506223034 | 55 | 321 | 0.9 | 5.2 | 0.00 | 0.62 | 0.41 | 57 | 1013.5 |
| 20260506221532 | 55 | 338 | 0.9 | 3.5 | 0.00 | 0.62 | 0.41 | 57 | 1013.7 |
| 20260506220035 | 56 | 344 | 0.9 | 5.2 | 0.00 | 0.62 | 0.41 | 58 | 1013.6 |
| 20260506214537 | 56 | 319 | 0.9 | 7.0 | 0.00 | 0.65 | 0.41 | 59 | 1013.4 |
| 20260506213036 | 56 | 298 | 0.9 | 4.3 | 0.00 | 0.65 | 0.41 | 59 | 1013.0 |
| 20260506211533 | 57 | 346 | 0.9 | 7.0 | 0.00 | 0.65 | 0.41 | 58 | 1012.9 |
| 20260506210049 | 57 | 347 | 0.9 | 6.1 | 0.00 | 0.65 | 0.41 | 59 | 1012.7 |
| 20260506204532 | 57 | 0 | 0.9 | 4.3 | 0.00 | 0.86 | 0.41 | 58 | 1012.8 |
| 20260506203036 | 57 | 360 | 1.7 | 7.0 | 0.00 | 0.86 | 0.41 | 57 | 1012.8 |
| 20260506201533 | 57 | 324 | 0.9 | 3.5 | 0.00 | 0.86 | 0.41 | 58 | 1012.7 |
| 20260506200036 | 58 | 350 | 0.0 | 5.2 | 0.00 | 0.86 | 0.41 | 55 | 1012.7 |
| 20260506194532 | 58 | 29 | 0.9 | 6.1 | 0.00 | 0.86 | 0.41 | 55 | 1012.6 |
| 20260506193037 | 58 | 360 | 1.7 | 7.8 | 0.00 | 0.86 | 0.41 | 53 | 1012.4 |
| 20260506191538 | 59 | 315 | 0.9 | 3.5 | 0.00 | 0.86 | 0.41 | 56 | 1012.6 |
| 20260506190035 | 59 | 360 | 1.7 | 8.7 | 0.00 | 0.86 | 0.41 | 55 | 1012.4 |
| 20260506184537 | 59 | 67 | 0.9 | 3.5 | 0.00 | 0.86 | 0.41 | 55 | 1012.2 |
| 20260506183036 | 59 | 306 | 0.9 | 7.8 | 0.00 | 0.86 | 0.41 | 56 | 1012.4 |
| 20260506181540 | 58 | 5 | 0.9 | 8.7 | 0.00 | 0.86 | 0.41 | 58 | 1012.3 |
| 20260506180040 | 58 | 11 | 0.9 | 8.7 | 0.00 | 0.86 | 0.41 | 60 | 1012.6 |
| 20260506174539 | 58 | 342 | 0.9 | 3.5 | 0.00 | 0.86 | 0.41 | 61 | 1013.0 |
| 20260506173041 | 57 | 279 | 0.9 | 7.0 | 0.00 | 0.86 | 0.41 | 59 | 1012.8 |
| 20260506171535 | 57 | 41 | 0.9 | 6.1 | 0.00 | 0.86 | 0.41 | 57 | 1012.9 |
| 20260506170043 | 57 | 345 | 0.9 | 7.0 | 0.00 | 0.86 | 0.41 | 58 | 1013.0 |
| 20260506164545 | 57 | 360 | 0.9 | 8.7 | 0.00 | 0.86 | 0.41 | 63 | 1013.2 |
| 20260506163042 | 56 | 10 | 0.9 | 4.3 | 0.00 | 0.86 | 0.41 | 64 | 1012.9 |
| 20260506161538 | 55 | 314 | 0.9 | 3.5 | 0.00 | 0.86 | 0.41 | 70 | 1012.8 |
| 20260506160037 | 55 | 311 | 1.7 | 7.0 | 0.00 | 0.86 | 0.41 | 68 | 1013.1 |
| 20260506154539 | 54 | 342 | 0.9 | 4.3 | 0.00 | 0.86 | 0.41 | 71 | 1013.1 |
| 20260506153032 | 54 | 34 | 0.9 | 7.0 | 0.00 | 0.86 | 0.41 | 69 | 1012.8 |
| 20260506151536 | 53 | 41 | 0.9 | 7.8 | 0.00 | 0.86 | 0.41 | 74 | 1012.4 |
| 20260506150032 | 52 | 360 | 1.7 | 7.8 | 0.00 | 0.86 | 0.41 | 75 | 1012.0 |
| 20260506144538 | 51 | 0 | 0.9 | 6.1 | 0.00 | 0.86 | 0.41 | 80 | 1011.9 |
| 20260506143039 | 50 | 360 | 1.7 | 5.2 | 0.00 | 0.86 | 0.41 | 81 | 1012.0 |
| 20260506141541 | 49 | 360 | 0.9 | 4.3 | 0.00 | 0.86 | 0.41 | 83 | 1011.8 |
| 20260506140034 | 48 | 333 | 0.9 | 7.0 | 0.00 | 0.86 | 0.41 | 83 | 1011.8 |
| 20260506134538 | 48 | 5 | 0.9 | 3.5 | 0.00 | 0.86 | 0.41 | 85 | 1011.7 |
| 20260506133048 | 47 | 0 | 0.0 | 1.7 | 0.00 | 0.86 | 0.41 | 86 | 1011.4 |
| 20260506131536 | 47 | 355 | 1.7 | 9.6 | 0.00 | 0.86 | 0.41 | 88 | 1011.1 |
| 20260506130035 | 46 | 13 | 0.9 | 4.3 | 0.00 | 0.86 | 0.41 | 89 | 1011.0 |
| 20260506124534 | 46 | 0 | 0.0 | 1.7 | 0.00 | 0.86 | 0.41 | 91 | 1011.1 |
| 20260506123040 | 46 | 0 | 0.9 | 7.0 | 0.00 | 0.86 | 0.41 | 92 | 1010.9 |
| 20260506121540 | 45 | 0 | 0.0 | 0.9 | 0.00 | 0.86 | 0.41 | 93 | 1010.6 |
| 20260506120050 | 45 | 0 | 0.0 | 0.9 | 0.00 | 0.86 | 0.41 | 93 | 1010.0 |
| 20260506114534 | 44 | 0 | 0.0 | 2.6 | 0.00 | 0.87 | 0.41 | 93 | 1009.6 |
| 20260506113033 | 44 | 0 | 0.0 | 1.7 | 0.00 | 0.87 | 0.41 | 93 | 1009.7 |
| 20260506111545 | 44 | 315 | 0.9 | 7.0 | 0.00 | 0.87 | 0.41 | 93 | 1009.4 |
| 20260506110038 | 44 | 329 | 0.9 | 4.3 | 0.00 | 0.87 | 0.41 | 93 | 1009.3 |
| 20260506104545 | 44 | 341 | 0.9 | 4.3 | 0.00 | 0.87 | 0.41 | 94 | 1009.0 |
| 20260506103043 | 44 | 360 | 0.9 | 7.0 | 0.00 | 0.87 | 0.41 | 94 | 1008.2 |
| 20260506101536 | 44 | 5 | 0.0 | 4.3 | 0.01 | 0.87 | 0.41 | 94 | 1008.0 |
| 20260506100032 | 44 | 0 | 0.9 | 4.3 | 0.01 | 0.87 | 0.41 | 94 | 1008.0 |
| 20260506094534 | 44 | 10 | 0.9 | 6.1 | 0.01 | 0.87 | 0.41 | 94 | 1008.0 |
| 20260506093034 | 44 | 346 | 0.0 | 8.7 | 0.01 | 0.87 | 0.41 | 94 | 1007.8 |
| 20260506091537 | 44 | 0 | 0.0 | 7.8 | 0.00 | 0.86 | 0.40 | 94 | 1007.6 |
| 20260506090037 | 45 | 28 | 0.9 | 7.0 | 0.02 | 0.86 | 0.40 | 94 | 1007.9 |
| 20260506084608 | 45 | 360 | 1.7 | 7.0 | 0.03 | 0.86 | 0.40 | 94 | 1007.7 |
| 20260506083037 | 45 | 0 | 0.0 | 8.7 | 0.05 | 0.86 | 0.40 | 94 | 1007.7 |
| 20260506081547 | 45 | 0 | 1.7 | 10.4 | 0.07 | 0.86 | 0.40 | 94 | 1007.3 |
| 20260506073035 | 46 | 346 | 0.9 | 7.8 | 0.06 | 0.81 | 0.35 | 94 | 1007.2 |